Time;durP1;ratioP1;P1;durP2;ratioP2;P2;SDS_P1;SDS_P2;PMS_P1;PMS_P2;Temp;Humidity;BMP_temperature;BMP_pressure;BME280_temperature;BME280_humidity;BME280_pressure;Samples;Min_cycle;Max_cycle;Signal;HPM_P1;HPM_P2
2023/04/14 00:02:02;;;;;;;;;0.00;0.00;;;;;20.59;34.80;100461.47;5110026;27;45293;-37
2023/04/14 00:04:28;;;;;;;;;0.00;0.00;;;;;20.57;34.63;100457.25;5109237;27;45394;-36
2023/04/14 00:06:55;;;;;;;;;0.00;0.00;;;;;20.55;34.94;100460.00;5111635;27;45445;-36
2023/04/14 00:09:21;;;;;;;;;0.75;0.75;;;;;20.54;34.63;100463.56;5109497;27;45442;-37
2023/04/14 00:11:46;;;;;;;;;1.00;1.00;;;;;20.52;34.76;100462.78;5105962;27;45294;-36
2023/04/14 00:14:12;;;;;;;;;1.25;1.00;;;;;20.50;35.23;100455.00;5102349;27;45499;-36
2023/04/14 00:16:38;;;;;;;;;1.75;1.00;;;;;20.50;34.81;100447.09;5101531;27;53584;-37
2023/04/14 00:19:03;;;;;;;;;1.50;1.00;;;;;20.48;35.42;100442.84;5103607;27;45242;-37
2023/04/14 00:21:30;;;;;;;;;2.00;0.50;;;;;20.48;34.80;100445.47;5108250;27;45296;-37
2023/04/14 00:23:55;;;;;;;;;1.00;1.00;;;;;20.45;35.25;100437.81;5118726;27;45453;-37
2023/04/14 00:26:21;;;;;;;;;1.00;1.00;;;;;20.45;34.70;100433.38;5109129;27;58786;-36
2023/04/14 00:28:46;;;;;;;;;0.00;0.00;;;;;20.44;35.07;100431.66;5102677;27;45402;-36
2023/04/14 00:31:11;;;;;;;;;0.00;0.00;;;;;20.44;34.73;100434.31;5101417;27;45567;-37
2023/04/14 00:33:37;;;;;;;;;0.50;0.50;;;;;20.43;35.40;100440.50;5105965;27;47087;-36
2023/04/14 00:36:02;;;;;;;;;1.00;1.00;;;;;20.42;34.78;100435.34;5117566;27;45283;-37
2023/04/14 00:38:27;;;;;;;;;1.00;1.00;;;;;20.40;35.06;100432.78;5105464;27;45367;-36
2023/04/14 00:40:53;;;;;;;;;0.50;0.50;;;;;20.38;35.31;100432.91;5113367;27;44837;-36
2023/04/14 00:43:18;;;;;;;;;0.75;0.00;;;;;20.37;35.28;100423.31;5117921;27;44963;-37
2023/04/14 00:45:46;;;;;;;;;1.00;1.00;;;;;20.37;34.98;100428.56;5114390;27;45310;-37
2023/04/14 00:48:13;;;;;;;;;1.00;1.00;;;;;20.36;35.27;100418.97;5103222;27;45237;-37
2023/04/14 00:50:39;;;;;;;;;2.00;1.00;;;;;20.35;35.48;100427.81;5101309;27;45514;-37
2023/04/14 00:53:04;;;;;;;;;0.00;0.00;;;;;20.34;35.03;100426.13;5098868;27;46203;-37
2023/04/14 00:55:32;;;;;;;;;1.00;1.00;;;;;20.33;35.21;100424.44;5100090;27;45410;-37
2023/04/14 00:58:00;;;;;;;;;1.00;1.00;;;;;20.32;35.26;100425.38;5100791;27;45416;-36
2023/04/14 01:00:26;;;;;;;;;1.00;1.00;;;;;20.31;35.01;100420.19;5106709;27;45281;-36
2023/04/14 01:02:52;;;;;;;;;0.00;0.00;;;;;20.30;34.92;100419.38;5107170;27;45249;-35
2023/04/14 01:05:17;;;;;;;;;0.00;0.00;;;;;20.30;34.99;100416.72;5100108;27;45254;-36
2023/04/14 01:07:43;;;;;;;;;1.00;0.25;;;;;20.29;35.22;100422.94;5098816;27;45358;-36
2023/04/14 01:10:09;;;;;;;;;1.25;0.00;;;;;20.30;34.97;100422.00;5101347;27;45223;-36
2023/04/14 01:13:05;;;;;;;;;0.75;0.75;;;;;20.28;35.35;100415.97;5100764;27;46246;-36
2023/04/14 01:15:37;;;;;;;;;0.75;0.75;;;;;20.27;35.35;100416.06;5117403;27;45348;-36
2023/04/14 01:18:29;;;;;;;;;1.00;1.00;;;;;20.26;35.29;100417.84;5107436;27;45273;-36
2023/04/14 01:21:15;;;;;;;;;0.00;0.00;;;;;20.23;35.29;100407.50;5100212;27;45524;-36
2023/04/14 01:24:01;;;;;;;;;1.00;0.00;;;;;20.23;34.99;100412.75;5099556;27;45463;-36
2023/04/14 01:26:32;;;;;;;;;2.50;0.00;;;;;20.23;34.90;100423.28;5099424;27;45773;-36
2023/04/14 01:29:21;;;;;;;;;0.00;0.00;;;;;20.21;35.12;100414.66;5106635;27;45442;-36
2023/04/14 01:31:52;;;;;;;;;0.00;0.00;;;;;20.20;35.43;100419.06;5101373;27;45407;-36
2023/04/14 01:34:28;;;;;;;;;2.00;0.00;;;;;20.19;35.60;100422.63;5098800;27;46049;-36
2023/04/14 01:37:04;;;;;;;;;0.25;0.25;;;;;20.20;35.17;100426.13;5101695;27;45702;-36
2023/04/14 01:39:36;;;;;;;;;0.00;0.00;;;;;20.18;35.51;100428.00;5099713;27;45637;-36
2023/04/14 01:42:06;;;;;;;;;1.00;0.00;;;;;20.17;35.00;100418.41;5100782;27;45429;-36
2023/04/14 01:44:33;;;;;;;;;1.00;1.00;;;;;20.16;35.00;100414.94;5101678;27;46209;-36
2023/04/14 01:47:06;;;;;;;;;0.00;0.00;;;;;20.17;35.35;100421.03;5104356;27;45176;-36
2023/04/14 01:49:35;;;;;;;;;1.00;1.00;;;;;20.15;34.96;100420.28;5106502;27;45314;-36
2023/04/14 01:52:04;;;;;;;;;1.50;1.00;;;;;20.15;35.28;100410.63;5107014;27;45403;-37
2023/04/14 01:54:31;;;;;;;;;0.00;0.00;;;;;20.14;35.51;100413.31;5101276;27;46307;-36
2023/04/14 01:57:00;;;;;;;;;0.00;0.00;;;;;20.14;35.31;100413.31;5099094;27;45349;-36
2023/04/14 01:59:27;;;;;;;;;0.25;0.00;;;;;20.14;35.28;100405.44;5103801;27;45263;-36
2023/04/14 02:01:54;;;;;;;;;0.75;0.75;;;;;20.12;35.50;100409.97;5099500;27;45461;-37
2023/04/14 02:04:24;;;;;;;;;0.50;0.50;;;;;20.13;35.28;100411.63;5099232;27;47712;-36
2023/04/14 02:06:51;;;;;;;;;2.00;1.00;;;;;20.10;35.18;100410.03;5103419;27;45470;-37
2023/04/14 02:09:19;;;;;;;;;0.75;0.75;;;;;20.10;35.23;100412.66;5104779;27;45436;-37
2023/04/14 02:11:47;;;;;;;;;0.00;0.00;;;;;20.10;35.28;100420.56;5107956;27;45812;-37
2023/04/14 02:14:15;;;;;;;;;0.00;0.00;;;;;20.10;35.18;100419.72;5106472;27;47189;-37
2023/04/14 02:16:42;;;;;;;;;0.00;0.00;;;;;20.08;35.25;100425.94;5112719;27;45156;-37
2023/04/14 02:19:08;;;;;;;;;0.00;0.00;;;;;20.09;35.32;100418.88;5108436;27;45333;-37
2023/04/14 02:21:34;;;;;;;;;0.00;0.00;;;;;20.07;35.36;100418.97;5110736;27;45309;-37
2023/04/14 02:24:00;;;;;;;;;0.25;0.00;;;;;20.07;35.33;100418.09;5116086;27;46170;-37
2023/04/14 02:26:31;;;;;;;;;0.00;0.00;;;;;20.06;35.58;100419.91;5119173;27;45182;-37
2023/04/14 02:29:11;;;;;;;;;0.50;0.50;;;;;20.05;35.14;100415.56;5118463;27;44755;-37
2023/04/14 02:31:43;;;;;;;;;0.00;0.00;;;;;20.05;35.19;100415.56;5121106;27;45366;-36
2023/04/14 02:34:11;;;;;;;;;0.00;0.00;;;;;20.04;35.39;100411.25;5119662;27;46617;-37
2023/04/14 02:36:44;;;;;;;;;1.50;1.00;;;;;20.05;35.21;100410.31;5118651;27;45364;-37
2023/04/14 02:39:16;;;;;;;;;0.00;0.00;;;;;20.04;35.29;100403.34;5123694;27;44574;-37
2023/04/14 02:41:44;;;;;;;;;2.00;0.00;;;;;20.03;35.69;100401.66;5115096;27;44776;-36
2023/04/14 02:44:22;;;;;;;;;0.75;0.75;;;;;20.03;35.25;100396.41;5100831;27;47276;-37
2023/04/14 02:47:08;;;;;;;;;0.25;0.25;;;;;20.03;35.18;100396.41;5101003;27;45356;-37
2023/04/14 02:49:42;;;;;;;;;0.00;0.00;;;;;20.02;35.12;100396.50;5102536;27;45287;-37
2023/04/14 02:52:10;;;;;;;;;0.00;0.00;;;;;20.00;35.62;100386.09;5104925;27;45411;-37
2023/04/14 02:54:40;;;;;;;;;0.00;0.00;;;;;20.00;35.39;100382.59;5099632;27;46284;-36
2023/04/14 02:57:07;;;;;;;;;0.00;0.00;;;;;20.02;35.44;100389.44;5103621;27;45207;-37
2023/04/14 02:59:33;;;;;;;;;0.00;0.00;;;;;20.01;35.56;100386.91;5106100;27;45233;-37
2023/04/14 03:02:03;;;;;;;;;1.00;1.00;;;;;19.98;35.46;100385.34;5103886;27;45396;-36
2023/04/14 03:04:31;;;;;;;;;1.00;1.00;;;;;19.98;35.64;100376.56;5101066;27;46878;-36
2023/04/14 03:06:57;;;;;;;;;1.00;1.00;;;;;19.99;35.50;100383.53;5111650;27;45210;-36
2023/04/14 03:09:24;;;;;;;;;2.00;1.00;;;;;19.97;35.60;100365.22;5106582;27;45456;-36
2023/04/14 03:11:50;;;;;;;;;0.00;0.00;;;;;19.97;35.65;100359.97;5103448;27;45402;-37
2023/04/14 03:14:18;;;;;;;;;0.00;0.00;;;;;19.96;35.14;100368.78;5116149;27;47392;-37
2023/04/14 03:16:44;;;;;;;;;1.00;1.00;;;;;19.95;35.21;100361.84;5105405;27;45326;-36
2023/04/14 03:19:12;;;;;;;;;2.00;0.00;;;;;19.94;35.75;100357.50;5109604;27;45436;-36
2023/04/14 03:21:37;;;;;;;;;0.00;0.00;;;;;19.94;35.57;100357.50;5103302;27;45428;-36
2023/04/14 03:24:05;;;;;;;;;0.00;0.00;;;;;19.94;35.29;100357.50;5102001;27;46099;-36
2023/04/14 03:26:33;;;;;;;;;1.00;1.00;;;;;19.93;35.88;100361.06;5101231;27;45404;-36
2023/04/14 03:29:01;;;;;;;;;3.00;1.00;;;;;19.92;35.83;100351.50;5101969;27;45412;-36
2023/04/14 03:31:31;;;;;;;;;1.00;1.00;;;;;19.91;35.52;100360.31;5106741;27;45327;-36
2023/04/14 03:34:00;;;;;;;;;0.00;0.00;;;;;19.90;35.94;100359.47;5107142;27;46338;-36
2023/04/14 03:36:28;;;;;;;;;1.00;1.00;;;;;19.89;35.51;100357.78;5101756;27;45246;-36
2023/04/14 03:38:58;;;;;;;;;2.00;1.00;;;;;19.90;35.77;100358.63;5101409;27;45488;-36
2023/04/14 03:41:25;;;;;;;;;0.75;0.75;;;;;19.88;35.27;100355.25;5101530;27;45504;-36
2023/04/14 03:43:55;;;;;;;;;0.75;0.75;;;;;19.87;35.53;100353.56;5102951;27;46502;-36
2023/04/14 03:46:23;;;;;;;;;0.00;0.00;;;;;19.86;35.28;100362.38;5106361;27;45440;-37
2023/04/14 03:48:51;;;;;;;;;1.00;0.00;;;;;19.85;35.41;100355.41;5102746;27;45421;-36
2023/04/14 03:51:21;;;;;;;;;0.00;0.00;;;;;19.84;35.84;100359.84;5125608;27;44841;-37
2023/04/14 03:53:47;;;;;;;;;1.50;0.50;;;;;19.83;35.67;100362.53;5126814;27;46112;-36
2023/04/14 03:56:14;;;;;;;;;0.75;0.75;;;;;19.81;35.79;100351.25;5125607;27;45423;-36
2023/04/14 03:58:42;;;;;;;;;0.50;0.50;;;;;19.81;35.39;100351.25;5119675;27;44863;-37
2023/04/14 04:01:10;;;;;;;;;0.00;0.00;;;;;19.81;35.71;100351.25;5115654;27;44734;-36
2023/04/14 04:03:37;;;;;;;;;0.00;0.00;;;;;19.76;35.47;100347.13;5105295;27;45686;-36
2023/04/14 04:06:03;;;;;;;;;0.00;0.00;;;;;19.78;35.72;100353.16;5107577;27;45341;-37
2023/04/14 04:08:30;;;;;;;;;0.00;0.00;;;;;19.78;35.51;100355.78;5107305;27;45317;-36
2023/04/14 04:10:56;;;;;;;;;0.00;0.00;;;;;19.78;35.50;100347.03;5105860;27;45346;-36
2023/04/14 04:13:23;;;;;;;;;0.00;0.00;;;;;19.77;35.72;100347.97;5104093;27;45179;-36
2023/04/14 04:15:50;;;;;;;;;3.00;1.00;;;;;19.76;35.59;100344.50;5103914;27;45161;-36
2023/04/14 04:18:17;;;;;;;;;1.50;1.00;;;;;19.77;36.10;100347.97;5112939;27;45278;-36
2023/04/14 04:20:43;;;;;;;;;0.00;0.00;;;;;19.76;35.45;100352.41;5109257;27;45413;-36
2023/04/14 04:23:11;;;;;;;;;0.00;0.00;;;;;19.75;35.57;100347.22;5106927;27;45389;-36
2023/04/14 04:25:39;;;;;;;;;0.00;0.00;;;;;19.75;35.40;100339.31;5101898;27;45639;-36
2023/04/14 04:28:08;;;;;;;;;0.25;0.25;;;;;19.74;35.67;100337.63;5101299;27;45254;-36
2023/04/14 04:30:38;;;;;;;;;1.00;1.00;;;;;19.71;35.81;100333.41;5115734;27;45502;-36
2023/04/14 04:33:05;;;;;;;;;0.00;0.00;;;;;19.72;35.43;100339.53;5117795;27;46647;-36
2023/04/14 04:35:32;;;;;;;;;0.00;0.00;;;;;19.71;35.88;100333.41;5107438;27;45340;-36
2023/04/14 04:37:59;;;;;;;;;2.00;0.00;;;;;19.72;36.10;100336.91;5103724;27;45184;-36
2023/04/14 04:40:25;;;;;;;;;0.25;0.25;;;;;19.72;36.07;100329.84;5106370;27;45342;-37
2023/04/14 04:42:50;;;;;;;;;0.00;0.00;;;;;19.72;35.95;100324.59;5104705;27;45948;-36
2023/04/14 04:45:38;;;;;;;;;0.25;0.25;;;;;19.73;35.65;100328.91;5101844;27;45377;-37
2023/04/14 04:48:04;;;;;;;;;0.25;0.25;;;;;19.71;36.06;100328.16;5101460;27;44763;-37
2023/04/14 04:50:29;;;;;;;;;0.00;0.00;;;;;19.71;35.90;100322.88;5100727;27;45303;-37
2023/04/14 04:52:54;;;;;;;;;0.00;0.00;;;;;19.71;35.47;100322.06;5099604;27;46922;-37
2023/04/14 04:55:20;;;;;;;;;1.75;1.00;;;;;19.70;35.76;100315.09;5100152;27;45471;-37
2023/04/14 04:57:45;;;;;;;;;2.00;0.00;;;;;19.69;35.93;100308.97;5100510;27;45392;-37
2023/04/14 05:00:11;;;;;;;;;1.00;1.00;;;;;19.69;35.69;100311.63;5102440;27;45436;-36
2023/04/14 05:02:36;;;;;;;;;0.00;0.00;;;;;19.68;35.83;100309.91;5109289;27;45487;-36
2023/04/14 05:05:01;;;;;;;;;0.67;0.67;;;;;19.68;36.03;100311.72;5101089;27;56320;-36
2023/04/14 05:07:27;;;;;;;;;0.00;0.00;;;;;19.68;36.07;100304.66;5104714;27;60190;-36
2023/04/14 05:09:52;;;;;;;;;0.50;0.50;;;;;19.67;35.96;100310.03;5111362;27;49201;-36
2023/04/14 05:12:17;;;;;;;;;0.00;0.00;;;;;19.66;36.02;100309.19;5117918;27;46558;-36
2023/04/14 05:14:43;;;;;;;;;1.00;1.00;;;;;19.65;35.61;100302.25;5106224;27;45351;-36
2023/04/14 05:17:08;;;;;;;;;1.00;0.75;;;;;19.63;35.87;100298.84;5099606;27;48168;-36
2023/04/14 05:19:33;;;;;;;;;0.00;0.00;;;;;19.62;35.67;100299.78;5100260;27;45474;-36
2023/04/14 05:21:59;;;;;;;;;1.00;1.00;;;;;19.61;35.45;100288.44;5098694;27;50371;-36
2023/04/14 05:24:24;;;;;;;;;3.75;2.00;;;;;19.60;35.98;100289.38;5099289;27;45350;-36
2023/04/14 05:26:50;;;;;;;;;8.00;6.00;;;;;19.60;35.78;100278.00;5098972;27;45413;-36
2023/04/14 05:29:15;;;;;;;;;16.25;13.50;;;;;19.60;35.96;100283.25;5099835;27;45495;-36
2023/04/14 05:31:40;;;;;;;;;16.50;14.75;;;;;19.60;35.85;100288.50;5098808;27;46274;-36
2023/04/14 05:34:05;;;;;;;;;30.00;21.33;;;;;19.59;36.14;100286.81;5103515;27;47715;-36
2023/04/14 05:36:31;;;;;;;;;23.50;21.00;;;;;19.59;35.91;100286.81;5104745;27;45310;-36
2023/04/14 05:38:56;;;;;;;;;25.00;20.50;;;;;19.60;35.59;100291.13;5105835;27;45342;-36
2023/04/14 05:41:22;;;;;;;;;29.75;26.50;;;;;19.60;36.17;100285.88;5100972;27;45688;-35
2023/04/14 05:43:47;;;;;;;;;35.75;28.50;;;;;19.61;35.61;100277.91;5100415;27;45345;-37
2023/04/14 05:46:13;;;;;;;;;29.50;26.25;;;;;19.66;36.17;100282.91;5106399;27;45619;-36
2023/04/14 05:48:38;;;;;;;;;33.00;26.00;;;;;19.67;35.54;100271.44;5105755;27;45276;-36
2023/04/14 05:51:03;;;;;;;;;24.00;23.00;;;;;19.70;35.64;100268.59;5100522;27;46158;-36
2023/04/14 05:53:29;;;;;;;;;31.00;27.00;;;;;19.71;35.74;100274.72;5098718;27;53931;-36
2023/04/14 05:55:55;;;;;;;;;31.00;26.33;;;;;19.71;35.43;100269.47;5098806;27;47691;-36
2023/04/14 05:58:21;;;;;;;;;31.50;28.25;;;;;19.70;35.42;100268.59;5098389;27;45342;-36
2023/04/14 06:00:46;;;;;;;;;27.25;23.25;;;;;19.69;35.54;100264.28;5100972;27;45390;-36
2023/04/14 06:03:11;;;;;;;;;33.75;27.00;;;;;19.71;36.03;100264.22;5100985;27;45325;-36
2023/04/14 06:05:37;;;;;;;;;33.25;27.25;;;;;19.71;35.66;100259.78;5102162;27;45443;-35
2023/04/14 06:08:02;;;;;;;;;28.50;28.00;;;;;19.73;36.16;100260.53;5101001;27;45305;-36
2023/04/14 06:10:27;;;;;;;;;25.50;23.50;;;;;19.73;35.89;100257.91;5104843;27;47293;-36
2023/04/14 06:12:53;;;;;;;;;21.00;20.33;;;;;19.74;35.99;100254.34;5105097;27;49112;-36
2023/04/14 06:15:18;;;;;;;;;25.25;22.75;;;;;19.76;36.21;100257.75;5105344;27;45471;-36
2023/04/14 06:17:46;;;;;;;;;25.25;20.25;;;;;19.77;36.19;100254.16;5113122;27;44942;-36
2023/04/14 06:20:11;;;;;;;;;26.00;20.25;;;;;19.78;35.64;100255.00;5119194;27;47408;-36
2023/04/14 06:22:39;;;;;;;;;19.25;14.00;;;;;19.78;35.65;100258.50;5114455;27;44570;-36
2023/04/14 06:25:04;;;;;;;;;18.75;16.50;;;;;19.78;36.11;100260.25;5103512;27;45855;-36
2023/04/14 06:27:30;;;;;;;;;20.25;17.25;;;;;19.80;36.16;100252.25;5105245;27;45749;-36
2023/04/14 06:29:57;;;;;;;;;17.00;15.75;;;;;19.80;36.16;100257.53;5103296;27;45374;-36
2023/04/14 06:32:22;;;;;;;;;19.25;17.00;;;;;19.80;36.35;100255.75;5116488;27;45362;-36
2023/04/14 06:34:47;;;;;;;;;17.50;15.75;;;;;19.81;36.28;100252.19;5109447;27;55154;-36
2023/04/14 06:37:13;;;;;;;;;18.25;15.50;;;;;19.81;36.17;100241.69;5102496;27;45636;-37
2023/04/14 06:39:39;;;;;;;;;15.50;14.00;;;;;19.82;35.96;100239.88;5112088;27;46184;-37
2023/04/14 06:42:04;;;;;;;;;20.25;15.00;;;;;19.83;36.21;100241.56;5109565;27;45328;-37
2023/04/14 06:44:29;;;;;;;;;14.50;13.25;;;;;19.81;35.82;100232.91;5115049;27;45291;-37
2023/04/14 06:46:55;;;;;;;;;12.75;12.25;;;;;19.82;35.73;100230.22;5107415;27;53685;-37
2023/04/14 06:49:20;;;;;;;;;14.33;13.00;;;;;19.82;35.77;100227.59;5098922;27;52094;-37
2023/04/14 06:51:46;;;;;;;;;13.75;12.00;;;;;19.82;35.77;100218.84;5100757;27;45231;-37
2023/04/14 06:54:11;;;;;;;;;17.33;10.67;;;;;19.81;35.73;100219.78;5106976;27;49858;-37
2023/04/14 06:56:36;;;;;;;;;14.75;11.50;;;;;19.84;36.03;100217.81;5112047;27;45278;-36
2023/04/14 06:59:02;;;;;;;;;15.00;9.33;;;;;19.84;35.73;100219.59;5100737;27;61115;-37
2023/04/14 07:01:27;;;;;;;;;9.25;9.25;;;;;19.84;36.20;100214.34;5097716;27;45413;-37
2023/04/14 07:03:52;;;;;;;;;11.00;10.00;;;;;19.84;36.04;100209.06;5097609;27;54943;-36
2023/04/14 07:06:18;;;;;;;;;11.25;8.00;;;;;19.85;36.15;100216.84;5105441;27;45218;-36
2023/04/14 07:08:44;;;;;;;;;10.00;8.50;;;;;19.85;36.14;100223.91;5113527;27;45146;-36
2023/04/14 07:11:10;;;;;;;;;11.75;9.25;;;;;19.86;35.80;100217.75;5098416;27;45331;-36
2023/04/14 07:13:37;;;;;;;;;13.00;10.50;;;;;19.86;36.03;100215.13;5097436;27;45378;-36
2023/04/14 07:16:05;;;;;;;;;9.00;8.50;;;;;19.88;36.39;100218.50;5097834;27;45436;-36
2023/04/14 07:18:31;;;;;;;;;9.25;8.00;;;;;19.88;36.11;100208.00;5098665;27;46034;-36
2023/04/14 07:20:57;;;;;;;;;8.25;8.25;;;;;19.88;36.01;100208.00;5099552;27;45346;-36
2023/04/14 07:23:26;;;;;;;;;10.25;7.00;;;;;19.88;35.95;100203.56;5104489;27;45301;-35
2023/04/14 07:25:56;;;;;;;;;8.75;8.00;;;;;19.87;35.85;100201.88;5104801;27;45494;-36
2023/04/14 07:28:22;;;;;;;;;8.50;7.50;;;;;19.88;36.25;100208.00;5104818;27;45535;-36
2023/04/14 07:30:49;;;;;;;;;8.50;7.00;;;;;19.87;36.36;100196.59;5098900;27;45360;-36
2023/04/14 07:33:19;;;;;;;;;11.00;6.50;;;;;19.88;36.35;100192.22;5095507;27;45254;-36
2023/04/14 07:35:45;;;;;;;;;9.00;8.25;;;;;19.87;36.35;100199.22;5097317;27;45452;-36
2023/04/14 07:38:10;;;;;;;;;6.75;6.00;;;;;19.88;36.22;100194.84;5097104;27;46536;-37
2023/04/14 07:40:36;;;;;;;;;6.00;6.00;;;;;19.88;36.24;100192.22;5098507;27;45152;-36
2023/04/14 07:43:01;;;;;;;;;7.00;6.00;;;;;19.87;35.82;100187.88;5101875;27;45311;-36
2023/04/14 07:45:27;;;;;;;;;6.75;6.00;;;;;19.88;36.41;100181.69;5106579;27;45202;-35
2023/04/14 07:47:52;;;;;;;;;8.00;6.00;;;;;19.86;35.95;100173.03;5110600;27;46064;-35
2023/04/14 07:50:17;;;;;;;;;5.00;5.00;;;;;19.87;36.00;100166.84;5108411;27;45343;-36
2023/04/14 07:52:43;;;;;;;;;7.00;6.00;;;;;19.88;36.11;100165.91;5110964;27;45460;-36
2023/04/14 07:55:08;;;;;;;;;6.25;6.00;;;;;19.88;36.12;100179.06;5103889;27;45271;-36
2023/04/14 07:57:34;;;;;;;;;9.00;5.75;;;;;19.89;36.21;100167.59;5099712;27;48632;-36
2023/04/14 07:59:59;;;;;;;;;4.25;4.25;;;;;19.89;36.07;100164.97;5102836;27;45270;-36
2023/04/14 08:02:26;;;;;;;;;7.75;5.00;;;;;19.89;36.19;100160.53;5115720;27;44677;-36
2023/04/14 08:04:51;;;;;;;;;5.00;5.00;;;;;19.90;36.21;100161.38;5124129;27;45304;-36
2023/04/14 08:07:16;;;;;;;;;3.75;3.25;;;;;19.89;36.12;100152.66;5123310;27;57819;-37
2023/04/14 08:09:42;;;;;;;;;7.75;6.00;;;;;19.90;36.02;100158.75;5114860;27;45406;-39
2023/04/14 08:12:07;;;;;;;;;7.25;4.00;;;;;19.89;36.22;100157.09;5109206;27;45398;-37
2023/04/14 08:14:33;;;;;;;;;5.25;4.75;;;;;19.87;36.03;100162.41;5115277;27;45216;-36
2023/04/14 08:16:58;;;;;;;;;4.75;4.00;;;;;19.88;36.15;100163.28;5107041;27;47181;-36
2023/04/14 08:19:23;;;;;;;;;4.50;3.25;;;;;19.87;36.21;100151.06;5109036;27;47566;-41
2023/04/14 08:21:49;;;;;;;;;4.00;3.00;;;;;19.86;36.22;100157.25;5108757;27;45374;-36
2023/04/14 08:24:14;;;;;;;;;3.25;3.25;;;;;19.86;36.15;100158.09;5110700;27;45340;-36
2023/04/14 08:26:40;;;;;;;;;4.00;3.25;;;;;19.87;35.82;100161.59;5109180;27;45387;-36
2023/04/14 08:29:05;;;;;;;;;5.00;4.25;;;;;19.86;36.19;100152.84;5108244;27;45356;-43
2023/04/14 08:31:31;;;;;;;;;6.00;4.00;;;;;19.85;36.02;100150.28;5110914;27;59591;-36
2023/04/14 08:33:57;;;;;;;;;3.50;3.50;;;;;19.86;36.43;100157.25;5116874;27;45235;-36
2023/04/14 09:19:21;;;;;;;;;2.00;2.00;;;;;20.35;35.99;100113.78;5100362;27;46051;-38
2023/04/14 09:21:47;;;;;;;;;2.75;2.00;;;;;20.39;36.03;100108.22;5105849;27;45384;-37
2023/04/14 09:24:17;;;;;;;;;2.00;2.00;;;;;20.47;36.09;100098.94;5103496;27;45285;-38
2023/04/14 09:26:42;;;;;;;;;1.25;1.25;;;;;20.51;35.77;100103.09;5101501;27;47017;-38
2023/04/14 09:29:07;;;;;;;;;0.50;0.50;;;;;20.55;35.61;100091.41;5105031;27;45443;-38
2023/04/14 09:31:33;;;;;;;;;2.00;1.00;;;;;20.59;35.49;100090.25;5100033;27;45340;-37
2023/04/14 09:33:59;;;;;;;;;1.75;1.00;;;;;20.63;35.45;100082.97;5098858;27;45471;-38
2023/04/14 09:36:26;;;;;;;;;6.00;2.00;;;;;20.65;35.54;100081.94;5099183;27;45348;-37
2023/04/14 09:38:52;;;;;;;;;1.00;1.00;;;;;20.68;35.38;100081.72;5098974;27;45760;-37
2023/04/14 09:41:21;;;;;;;;;1.00;1.00;;;;;20.69;35.49;100080.75;5100008;27;45326;-38
2023/04/14 09:43:51;;;;;;;;;1.00;1.00;;;;;20.73;35.75;100080.56;5099772;27;45540;-38
2023/04/14 09:46:16;;;;;;;;;1.00;1.00;;;;;20.74;35.32;100074.34;5099325;27;46194;-38
2023/04/14 09:48:53;;;;;;;;;2.00;2.00;;;;;20.78;35.34;100075.88;5098989;27;45384;-38
2023/04/14 09:51:32;;;;;;;;;2.00;2.00;;;;;20.80;35.44;100063.41;5099544;27;45441;-38
2023/04/14 09:54:02;;;;;;;;;1.00;1.00;;;;;20.81;35.44;100070.38;5101472;27;45329;-38
2023/04/14 09:56:27;;;;;;;;;1.25;1.25;;;;;20.82;35.40;100066.78;5103454;27;45475;-38
2023/04/14 09:58:57;;;;;;;;;1.00;1.00;;;;;20.84;35.32;100067.53;5101360;27;45419;-38
2023/04/14 10:01:22;;;;;;;;;1.00;1.00;;;;;20.84;35.17;100059.63;5105054;27;44704;-38
2023/04/14 10:03:48;;;;;;;;;1.75;1.75;;;;;20.83;35.03;100053.53;5106812;27;45203;-38
2023/04/14 10:06:18;;;;;;;;;1.00;1.00;;;;;20.84;35.42;100055.19;5103653;27;46767;-38
2023/04/14 10:08:48;;;;;;;;;1.00;1.00;;;;;20.85;35.30;100053.44;5098399;27;45420;-38
2023/04/14 10:11:34;;;;;;;;;1.75;1.25;;;;;20.85;34.84;100053.44;5098513;27;45462;-38
2023/04/14 10:14:05;;;;;;;;;1.00;1.00;;;;;20.87;35.10;100054.16;5081921;27;45504;-38
2023/04/14 10:16:31;;;;;;;;;2.75;2.00;;;;;20.87;35.23;100048.91;5098259;27;45439;-38
2023/04/14 10:18:57;;;;;;;;;1.50;1.50;;;;;20.85;35.15;100051.63;5104049;27;45179;-38
2023/04/14 10:21:23;;;;;;;;;1.00;1.00;;;;;20.85;35.18;100045.53;5113742;27;45288;-38
2023/04/14 10:23:49;;;;;;;;;1.00;1.00;;;;;20.85;35.02;100045.53;5105447;27;45394;-38
2023/04/14 10:26:15;;;;;;;;;2.00;0.00;;;;;20.84;34.91;100038.56;5100146;27;46204;-38
2023/04/14 10:28:44;;;;;;;;;1.00;1.00;;;;;20.82;35.19;100036.06;5118126;27;45166;-38
2023/04/14 10:31:24;;;;;;;;;0.00;0.00;;;;;20.82;35.06;100037.81;5111591;27;45423;-38
2023/04/14 10:33:49;;;;;;;;;0.75;0.75;;;;;20.81;34.88;100030.88;5099779;27;45408;-38
2023/04/14 10:36:27;;;;;;;;;0.50;0.50;;;;;20.81;35.23;100021.19;5109310;27;45272;-38
2023/04/14 10:39:00;;;;;;;;;0.25;0.25;;;;;20.80;34.79;100016.88;5105499;27;45409;-37
2023/04/14 10:41:25;;;;;;;;;1.00;1.00;;;;;20.78;35.09;100013.50;5101927;27;45834;-38
2023/04/14 10:43:51;;;;;;;;;0.25;0.25;;;;;20.79;34.90;100009.06;5101913;27;45665;-38
2023/04/14 10:46:16;;;;;;;;;0.00;0.00;;;;;20.77;34.67;100006.53;5102559;27;45540;-38
2023/04/14 10:48:47;;;;;;;;;1.75;0.50;;;;;20.77;34.74;100000.44;5099677;27;45449;-38
2023/04/14 10:51:16;;;;;;;;;2.00;1.00;;;;;20.75;34.77;100000.53;5101721;27;45395;-38
2023/04/14 10:53:54;;;;;;;;;1.00;1.00;;;;;20.75;34.66;100008.44;5103654;27;45432;-38
2023/04/14 10:56:20;;;;;;;;;1.00;1.00;;;;;20.76;35.33;99989.06;5100743;27;46657;-38
2023/04/14 10:58:56;;;;;;;;;1.00;1.00;;;;;20.76;35.17;100002.22;5121249;27;45365;-38
2023/04/14 11:01:29;;;;;;;;;0.00;0.00;;;;;20.75;35.25;99989.19;5138861;27;44767;-37
2023/04/14 11:03:56;;;;;;;;;1.00;1.00;;;;;20.73;35.01;99993.66;5130147;27;45288;-38
2023/04/14 11:06:52;;;;;;;;;4.00;1.00;;;;;20.69;34.92;99980.72;5119524;27;46018;-38
2023/04/14 11:09:24;;;;;;;;;0.50;0.50;;;;;20.72;35.29;99986.72;5113460;27;45069;-38
2023/04/14 11:11:50;;;;;;;;;0.00;0.00;;;;;20.70;34.65;99978.94;5136472;27;45296;-38
2023/04/14 11:14:15;;;;;;;;;2.25;1.00;;;;;20.72;35.35;99976.19;5136227;27;45522;-38
2023/04/14 11:16:43;;;;;;;;;1.00;1.00;;;;;20.72;34.95;99970.91;5121951;27;46243;-39
2023/04/14 11:19:14;;;;;;;;;4.50;0.00;;;;;20.75;34.77;99960.22;5125407;27;45181;-41
2023/04/14 11:21:49;;;;;;;;;0.75;0.75;;;;;20.79;35.18;99949.34;5119985;27;45428;-38
2023/04/14 11:24:15;;;;;;;;;1.00;1.00;;;;;20.83;35.00;99948.19;5119483;27;45398;-36
2023/04/14 11:26:43;;;;;;;;;0.75;0.75;;;;;20.90;34.73;99953.84;5118765;27;46057;-36
2023/04/14 11:29:08;;;;;;;;;1.00;1.00;;;;;20.93;35.11;99945.72;5116968;27;45320;-36
2023/04/14 11:31:33;;;;;;;;;2.00;2.00;;;;;20.99;35.09;99950.56;5118962;27;45330;-37
2023/04/14 11:34:03;;;;;;;;;1.00;1.00;;;;;21.03;35.06;99943.28;5118632;27;45471;-37
2023/04/14 11:36:30;;;;;;;;;1.00;1.00;;;;;21.09;35.17;99936.75;5118278;27;47045;-37
2023/04/14 11:38:55;;;;;;;;;0.00;0.00;;;;;21.14;34.77;99939.88;5120285;27;45331;-37
2023/04/14 11:41:21;;;;;;;;;3.75;2.00;;;;;21.18;34.76;99941.34;5122636;27;45338;-37
2023/04/14 11:43:47;;;;;;;;;2.75;2.00;;;;;21.23;34.65;99938.38;5124854;27;45356;-37
2023/04/14 11:46:13;;;;;;;;;2.25;1.00;;;;;21.26;34.71;99930.25;5130945;27;46894;-38
2023/04/14 11:48:39;;;;;;;;;2.25;2.25;;;;;21.30;34.76;99943.09;5131460;27;45821;-38
2023/04/14 11:51:05;;;;;;;;;3.75;2.00;;;;;21.33;35.22;99934.09;5124994;27;45272;-39
2023/04/14 11:53:31;;;;;;;;;6.00;2.25;;;;;21.34;34.83;99925.25;5124035;27;45707;-39
2023/04/14 11:55:59;;;;;;;;;4.25;3.00;;;;;21.38;34.68;99939.03;5129901;27;46286;-39
2023/04/14 11:58:26;;;;;;;;;3.25;2.00;;;;;21.39;34.51;99938.09;5139979;27;45137;-37
2023/04/14 12:00:53;;;;;;;;;2.00;2.00;;;;;21.40;34.54;99943.25;5139139;27;45242;-37
2023/04/14 12:03:19;;;;;;;;;3.50;1.50;;;;;21.40;34.49;99950.31;5132979;27;45535;-37
2023/04/14 12:05:44;;;;;;;;;2.25;2.00;;;;;21.41;34.80;99946.72;5124536;27;46136;-38
2023/04/14 12:08:11;;;;;;;;;2.00;2.00;;;;;21.43;34.52;99964.13;5121571;27;45232;-43
2023/04/14 12:10:38;;;;;;;;;2.50;1.00;;;;;21.45;34.65;99953.44;5121128;27;45584;-38